Memphis, TN

1:59 AM CST on February 27, 2015 (GMT -0600)
Sea Isle | Change Station
CLOSE
Current Station
Personal Weather Station
Location: Memphis, TN
Elevation: 276 ft
Nearby Weather Stations

Elev 276 ft 35.09 °N, 89.89 °W | Updated 8 seconds ago

Mostly Cloudy
Mostly Cloudy
24.6 °F
Feels Like 16 °F
N
8.3
Wind Variable Wind from West
Gusts 8.3 mph

Today
High -- | Low -- °F
--% Chance of Precip.
Yesterday
High -- | Low -- °F
Precip. -- in
6:32 AM 5:53 PM
Waxing Gibbous, 66% visible
Pressure 30.48 in
Visibility 10.0 miles
Clouds Mostly Cloudy 2900 ft
Windchill 16 °F
Dew Point 13 °F
Humidity 61%
Rainfall 0.00 in
Snow Depth Not available.
UV 0 out of 12
Pollen 5.30 out of 12
Air Quality Not available.
Flu Activity Not available.
METAR KMEM 270754Z 02011KT 10SM BKN029 M04/M11 A3047 RMK AO2 SLP320 T10391106

More Conditions Fewer Conditions

Pressure 30.48 in
Visibility 10.0 miles
Clouds Mostly Cloudy 2900 ft
Windchill 16 °F
Dew Point 13 °F
Humidity 61%
Rainfall 0.00 in
Snow Depth Not available.
UV 0 out of 12
Pollen 5.30 out of 12
Air Quality Not available.
Flu Activity Not available.
METAR KMEM 270754Z 02011KT 10SM BKN029 M04/M11 A3047 RMK AO2 SLP320 T10391106

More Conditions Fewer Conditions

10-Day Weather Forecast

Almanac

Astronomy

Feb. 27, 2015 Rise Set
Actual Time
Civil Twilight
Nautical Twilight
Astronomical Twilight
Moon
Length of Visible Light
Length of Day
Tomorrow will be .
, % of the Moon is Illuminated

Today's Extremes

State Highs State Lows

Community

WunderPhotos

Upload Photos

1,800,649 photos uploaded!

WunderBlogs® & News

Nearby

Air Quality

  Air Quality AQ Index Pollutant
Not available.

Snow Depth

Station Depth Elevation

Earthquake Activity

City Distance Mag. Time & Date
Minimum magnitude displayed is 2.5.

Coastal Water Temperatures

Place Temperature

Nearby Weather Stations